createdAt,value
2023-03-29T00:02:00.267Z,97207.28
2023-03-29T00:04:31.219Z,97213.41
2023-03-29T00:07:04.965Z,97196.31
2023-03-29T00:09:36.435Z,97211.19
2023-03-29T00:12:11.692Z,97199.38
2023-03-29T00:14:42.509Z,97197.50
2023-03-29T00:17:13.271Z,97203.38
2023-03-29T00:19:46.922Z,97192.50
2023-03-29T00:22:18.426Z,97198.47
2023-03-29T00:24:49.905Z,97202.78
2023-03-29T00:27:23.853Z,97208.19
2023-03-29T00:29:54.880Z,97207.59
2023-03-29T00:32:26.094Z,97200.19
2023-03-29T00:34:57.045Z,97201.16
2023-03-29T00:37:28.068Z,97191.88
2023-03-29T00:39:59.565Z,97197.69
2023-03-29T00:42:33.209Z,97189.47
2023-03-29T00:45:08.008Z,97193.66
2023-03-29T00:47:43.098Z,97197.84
2023-03-29T00:50:18.985Z,97189.00
2023-03-29T00:52:55.089Z,97186.47
2023-03-29T00:55:30.133Z,97192.09
2023-03-29T00:58:05.762Z,97192.81
2023-03-29T01:00:40.661Z,97180.75
2023-03-29T01:03:25.283Z,97191.00
2023-03-29T01:06:02.168Z,97194.38
2023-03-29T01:08:35.743Z,97191.63
2023-03-29T01:11:11.742Z,97189.13
2023-03-29T01:13:51.030Z,97204.66
2023-03-29T01:16:24.277Z,97203.78
2023-03-29T01:18:55.530Z,97194.94
2023-03-29T01:21:32.698Z,97205.69
2023-03-29T01:24:21.071Z,97195.34
2023-03-29T01:27:01.031Z,97194.47
2023-03-29T01:29:39.368Z,97194.97
2023-03-29T01:32:14.770Z,97195.44
2023-03-29T01:34:51.471Z,97204.53
2023-03-29T01:37:28.193Z,97199.28
2023-03-29T01:39:59.005Z,97193.16
2023-03-29T01:42:39.929Z,97201.16
2023-03-29T01:45:23.583Z,97177.91
2023-03-29T01:48:02.111Z,97194.00
2023-03-29T01:50:44.773Z,97194.38
2023-03-29T01:53:20.977Z,97206.56
2023-03-29T01:55:56.875Z,97194.19
2023-03-29T01:58:34.142Z,97199.06
2023-03-29T02:01:10.688Z,97201.28
2023-03-29T02:03:47.708Z,97183.75
2023-03-29T02:06:22.688Z,97195.00
2023-03-29T02:08:56.291Z,97194.72
2023-03-29T02:11:29.684Z,97200.38
2023-03-29T02:14:01.135Z,97190.81
2023-03-29T02:16:39.273Z,97203.53
2023-03-29T02:19:11.957Z,97206.22
2023-03-29T02:21:50.028Z,97207.72
2023-03-29T02:24:24.719Z,97203.53
2023-03-29T02:26:55.728Z,97184.66
2023-03-29T02:29:26.773Z,97198.09
2023-03-29T02:32:08.658Z,97208.59
2023-03-29T02:34:48.086Z,97216.53
2023-03-29T02:37:24.725Z,97210.44
2023-03-29T02:39:56.423Z,97202.06
2023-03-29T02:42:28.614Z,97220.00
2023-03-29T02:45:02.390Z,97225.38
2023-03-29T02:47:41.656Z,97237.72
2023-03-29T02:50:13.342Z,97235.59
2023-03-29T02:52:49.582Z,97238.16
2023-03-29T02:55:22.013Z,97237.31
2023-03-29T02:57:53.102Z,97227.25
2023-03-29T03:00:24.938Z,97234.19
2023-03-29T03:03:00.653Z,97240.03
2023-03-29T03:05:33.136Z,97240.28
2023-03-29T03:08:05.031Z,97255.34
2023-03-29T03:10:36.037Z,97255.84
2023-03-29T03:13:08.441Z,97260.19
2023-03-29T03:15:42.979Z,97256.00
2023-03-29T03:18:17.052Z,97271.47
2023-03-29T03:20:57.634Z,97271.47
2023-03-29T03:23:29.198Z,97277.88
2023-03-29T03:26:00.409Z,97280.53
2023-03-29T03:28:33.459Z,97278.03
2023-03-29T03:31:07.742Z,97294.16
2023-03-29T03:34:00.285Z,97289.56
2023-03-29T03:36:45.527Z,97293.41
2023-03-29T03:39:17.713Z,97288.91
2023-03-29T03:41:48.909Z,97305.88
2023-03-29T03:44:21.289Z,97299.78
2023-03-29T03:47:03.549Z,97307.31
2023-03-29T03:49:38.002Z,97299.13
2023-03-29T03:52:09.104Z,97307.13
2023-03-29T03:54:40.046Z,97312.59
2023-03-29T03:57:29.709Z,97311.97
2023-03-29T04:00:00.740Z,97305.34
2023-03-29T04:02:43.675Z,97324.84
2023-03-29T04:05:17.745Z,97325.88
2023-03-29T04:07:49.377Z,97326.00
2023-03-29T04:10:39.821Z,97331.63
2023-03-29T04:13:18.891Z,97327.34
2023-03-29T04:16:13.267Z,97335.94
2023-03-29T04:18:44.842Z,97341.19
2023-03-29T04:21:21.246Z,97349.56
2023-03-29T04:23:52.771Z,97344.84
2023-03-29T04:26:23.706Z,97350.28
2023-03-29T04:29:01.076Z,97343.88
2023-03-29T04:31:44.882Z,97343.03
2023-03-29T04:34:38.822Z,97351.94
2023-03-29T04:37:13.150Z,97355.06
2023-03-29T04:39:45.155Z,97359.78
2023-03-29T04:42:16.901Z,97362.78
2023-03-29T04:44:50.153Z,97358.81
2023-03-29T04:47:30.177Z,97356.69
2023-03-29T04:50:06.792Z,97362.94
2023-03-29T04:52:51.145Z,97354.63
2023-03-29T04:55:22.403Z,97374.59
2023-03-29T04:58:03.192Z,97365.97
2023-03-29T05:00:35.978Z,97365.28
2023-03-29T05:03:25.904Z,97355.28
2023-03-29T05:06:07.543Z,97375.16
2023-03-29T05:08:44.390Z,97372.28
2023-03-29T05:11:38.672Z,97370.28
2023-03-29T05:14:09.892Z,97358.66
2023-03-29T05:16:42.587Z,97372.81
2023-03-29T05:19:14.608Z,97377.81
2023-03-29T05:21:50.366Z,97379.63
2023-03-29T05:24:28.197Z,97386.00
2023-03-29T05:27:05.255Z,97392.69
2023-03-29T05:29:40.076Z,97389.59
2023-03-29T05:32:31.146Z,97388.03
2023-03-29T05:35:01.833Z,97403.13
2023-03-29T05:37:35.121Z,97388.66
2023-03-29T05:40:13.272Z,97390.94
2023-03-29T05:43:10.244Z,97383.91
2023-03-29T05:45:41.917Z,97393.72
2023-03-29T05:48:13.891Z,97388.94
2023-03-29T05:50:50.325Z,97399.91
2023-03-29T05:53:23.367Z,97391.00
2023-03-29T05:55:57.058Z,97396.69
2023-03-29T05:58:31.356Z,97400.31
2023-03-29T06:01:04.914Z,97396.06
2023-03-29T06:04:02.291Z,97394.72
2023-03-29T06:06:55.668Z,97400.81
2023-03-29T06:09:27.008Z,97402.53
2023-03-29T06:12:05.861Z,97384.78
2023-03-29T06:15:05.485Z,97402.97
2023-03-29T06:17:46.166Z,97397.94
2023-03-29T06:20:17.962Z,97397.84
2023-03-29T06:22:53.840Z,97402.47
2023-03-29T06:25:25.348Z,97402.88
2023-03-29T06:27:59.232Z,97402.66
2023-03-29T06:30:30.338Z,97404.59
2023-03-29T06:33:02.391Z,97411.91
2023-03-29T06:35:53.752Z,97409.66
2023-03-29T06:38:31.279Z,97416.38
2023-03-29T06:41:15.263Z,97415.06
2023-03-29T06:44:07.715Z,97411.59
2023-03-29T06:46:52.999Z,97429.53
2023-03-29T06:49:25.145Z,97416.84
2023-03-29T06:52:21.626Z,97409.53
2023-03-29T06:54:52.488Z,97417.44
2023-03-29T06:57:24.071Z,97418.72
2023-03-29T06:59:57.919Z,97425.44
2023-03-29T07:02:42.600Z,97421.06
2023-03-29T07:05:16.793Z,97422.22
2023-03-29T07:08:00.549Z,97424.34
2023-03-29T07:10:50.012Z,97415.22
2023-03-29T07:13:42.901Z,97419.53
2023-03-29T07:16:19.801Z,97419.78
2023-03-29T07:19:16.432Z,97410.91
2023-03-29T07:21:59.589Z,97423.84
2023-03-29T07:24:43.878Z,97428.25
2023-03-29T07:27:15.130Z,97431.00
2023-03-29T07:29:46.914Z,97427.22
2023-03-29T07:32:20.993Z,97432.25
2023-03-29T07:35:18.130Z,97440.16
2023-03-29T07:37:50.247Z,97441.56
2023-03-29T07:40:24.605Z,97441.97
2023-03-29T07:43:01.705Z,97456.19
2023-03-29T07:45:36.408Z,97442.63
2023-03-29T07:48:14.995Z,97432.72
2023-03-29T07:51:09.728Z,97445.38
2023-03-29T07:53:48.154Z,97436.47
2023-03-29T07:56:45.432Z,97440.06
2023-03-29T07:59:23.216Z,97438.25
2023-03-29T08:02:02.764Z,97434.06
2023-03-29T08:04:44.384Z,97432.97
2023-03-29T08:07:22.367Z,97437.94
2023-03-29T08:10:14.272Z,97445.06
2023-03-29T08:12:54.518Z,97434.00
2023-03-29T08:15:33.039Z,97437.19
2023-03-29T08:18:03.938Z,97430.97
2023-03-29T08:20:38.593Z,97427.13
2023-03-29T08:23:09.541Z,97425.16
2023-03-29T08:26:09.345Z,97426.97
2023-03-29T08:28:41.801Z,97414.50
2023-03-29T08:31:13.902Z,97421.69
2023-03-29T08:33:48.287Z,97401.50
2023-03-29T08:36:48.001Z,97425.03
2023-03-29T08:39:28.120Z,97414.19
2023-03-29T08:42:58.804Z,97419.47
2023-03-29T08:45:43.554Z,97430.13
2023-03-29T08:48:24.772Z,97422.47
2023-03-29T08:51:00.338Z,97421.25
2023-03-29T08:53:38.955Z,97418.34
2023-03-29T08:56:18.980Z,97412.34
2023-03-29T08:58:55.185Z,97415.19
2023-03-29T09:01:31.337Z,97416.34
2023-03-29T09:04:10.151Z,97410.00
2023-03-29T09:06:58.914Z,97420.84
2023-03-29T09:09:40.415Z,97417.81
2023-03-29T09:12:44.478Z,97421.97
2023-03-29T09:15:21.962Z,97412.16
2023-03-29T09:18:13.492Z,97406.38
2023-03-29T09:20:55.514Z,97399.31
2023-03-29T09:23:41.751Z,97397.19
2023-03-29T09:26:39.645Z,97415.13
2023-03-29T09:29:50.656Z,97414.72
2023-03-29T09:32:29.180Z,97420.16
2023-03-29T09:35:18.766Z,97425.72
2023-03-29T09:37:53.843Z,97414.88
2023-03-29T09:40:30.111Z,97418.22
2023-03-29T09:43:33.105Z,97410.69
2023-03-29T09:46:16.232Z,97410.69
2023-03-29T09:48:49.643Z,97419.47
2023-03-29T09:51:23.115Z,97438.69
2023-03-29T09:53:54.171Z,97432.72
2023-03-29T09:56:45.458Z,97436.47
2023-03-29T09:59:22.436Z,97427.25
2023-03-29T10:01:53.537Z,97425.47
2023-03-29T10:04:24.212Z,97418.94
2023-03-29T10:07:04.478Z,97412.66
2023-03-29T10:09:36.414Z,97417.97
2023-03-29T10:12:20.051Z,97417.69
2023-03-29T10:14:56.745Z,97409.47
2023-03-29T10:17:33.013Z,97417.66
2023-03-29T10:20:10.103Z,97388.88
2023-03-29T10:22:42.606Z,97408.47
2023-03-29T10:25:17.705Z,97421.28
2023-03-29T10:27:51.834Z,97422.25
2023-03-29T10:30:28.919Z,97410.44
2023-03-29T10:33:01.400Z,97413.78
2023-03-29T10:35:36.635Z,97414.44
2023-03-29T10:38:10.684Z,97417.94
2023-03-29T10:40:47.598Z,97425.47
2023-03-29T10:43:25.760Z,97433.09
2023-03-29T10:46:08.599Z,97416.13
2023-03-29T10:48:39.636Z,97404.19
2023-03-29T10:51:10.617Z,97407.53
2023-03-29T10:53:41.720Z,97411.13
2023-03-29T10:56:32.635Z,97406.28
2023-03-29T10:59:27.704Z,97405.00
2023-03-29T11:02:37.572Z,97403.34
2023-03-29T11:05:25.027Z,97396.94
2023-03-29T11:08:16.524Z,97396.25
2023-03-29T11:10:58.157Z,97391.91
2023-03-29T11:13:39.226Z,97394.75
2023-03-29T11:16:18.927Z,97396.84
2023-03-29T11:19:17.903Z,97380.13
2023-03-29T11:21:59.765Z,97390.59
2023-03-29T11:24:38.047Z,97384.63
2023-03-29T11:27:20.353Z,97392.25
2023-03-29T11:30:06.723Z,97383.63
2023-03-29T11:32:47.603Z,97391.44
2023-03-29T11:35:40.071Z,97385.16
2023-03-29T11:38:23.164Z,97380.00
2023-03-29T11:41:01.690Z,97362.47
2023-03-29T11:43:38.323Z,97370.94
2023-03-29T11:46:15.642Z,97373.44
2023-03-29T11:48:53.864Z,97366.19
2023-03-29T11:51:29.254Z,97359.34
2023-03-29T11:54:07.797Z,97357.69
2023-03-29T11:56:43.739Z,97353.16
2023-03-29T11:59:19.587Z,97373.59
2023-03-29T12:01:56.042Z,97357.88
2023-03-29T12:04:33.349Z,97351.41
2023-03-29T12:07:12.581Z,97355.81
2023-03-29T12:09:53.100Z,97346.31
2023-03-29T12:12:28.346Z,97355.78
2023-03-29T12:15:05.814Z,97361.91
2023-03-29T12:17:42.697Z,97365.22
2023-03-29T12:20:21.516Z,97342.16
2023-03-29T12:22:56.036Z,97343.94
2023-03-29T12:25:34.824Z,97352.88
2023-03-29T12:28:26.484Z,97347.44
2023-03-29T12:31:05.469Z,97355.53
2023-03-29T12:34:05.499Z,97349.09
2023-03-29T12:37:13.017Z,97341.31
2023-03-29T12:39:49.789Z,97357.72
2023-03-29T12:43:05.655Z,97349.94
2023-03-29T12:46:09.575Z,97327.38
2023-03-29T12:48:43.385Z,97330.19
2023-03-29T12:51:17.822Z,97334.63
2023-03-29T12:53:51.453Z,97340.16
2023-03-29T12:56:24.810Z,97338.06
2023-03-29T12:59:09.826Z,97295.13
2023-03-29T13:01:42.115Z,97330.81
2023-03-29T13:04:20.118Z,97336.53
2023-03-29T13:07:07.503Z,97333.06
2023-03-29T13:09:50.228Z,97333.06
2023-03-29T13:12:29.656Z,97343.38
2023-03-29T13:15:08.530Z,97344.44
2023-03-29T13:17:52.983Z,97348.72
2023-03-29T13:20:44.565Z,97347.06
2023-03-29T13:23:32.099Z,97344.03
2023-03-29T13:26:23.965Z,97339.34
2023-03-29T13:29:20.155Z,97350.09
2023-03-29T13:32:00.634Z,97355.00
2023-03-29T13:34:40.865Z,97358.06
2023-03-29T13:37:33.367Z,97357.53
2023-03-29T13:40:06.138Z,97350.88
2023-03-29T13:42:46.715Z,97358.28
2023-03-29T13:45:19.996Z,97346.16
2023-03-29T13:48:05.732Z,97358.72
2023-03-29T13:50:40.584Z,97350.91
2023-03-29T13:53:18.538Z,97345.91
2023-03-29T13:55:54.269Z,97346.31
2023-03-29T13:58:36.207Z,97341.69
2023-03-29T14:01:15.099Z,97329.16
2023-03-29T14:03:52.241Z,97352.00
2023-03-29T14:06:29.817Z,97335.13
2023-03-29T14:09:02.794Z,97342.09
2023-03-29T14:11:34.418Z,97346.41
2023-03-29T14:14:08.750Z,97342.94
2023-03-29T14:16:42.182Z,97350.19
2023-03-29T14:19:21.895Z,97345.06
2023-03-29T14:21:54.034Z,97353.00
2023-03-29T14:24:29.033Z,97354.50
2023-03-29T14:27:00.028Z,97344.75
2023-03-29T14:29:34.253Z,97349.88
2023-03-29T14:32:13.662Z,97350.03
2023-03-29T14:34:47.472Z,97323.06
2023-03-29T14:37:24.931Z,97351.03
2023-03-29T14:39:56.738Z,97348.38
2023-03-29T14:42:30.349Z,97353.53
2023-03-29T14:45:05.478Z,97350.75
2023-03-29T14:47:37.257Z,97351.41
2023-03-29T14:50:21.851Z,97355.03
2023-03-29T14:52:54.560Z,97348.38
2023-03-29T14:55:27.540Z,97342.09
2023-03-29T14:58:00.531Z,97329.06
2023-03-29T15:00:35.373Z,97361.31
2023-03-29T15:03:07.044Z,97358.69
2023-03-29T15:05:44.360Z,97353.81
2023-03-29T15:08:20.284Z,97353.66
2023-03-29T15:10:52.125Z,97362.59
2023-03-29T15:13:26.077Z,97359.25
2023-03-29T15:16:00.798Z,97358.72
2023-03-29T15:18:38.753Z,97352.31
2023-03-29T15:21:14.477Z,97375.72
2023-03-29T15:23:51.125Z,97368.22
2023-03-29T15:26:28.099Z,97366.53
2023-03-29T15:29:08.279Z,97372.81
2023-03-29T15:31:41.583Z,97372.44
2023-03-29T15:34:16.000Z,97370.59
2023-03-29T15:36:49.546Z,97369.94
2023-03-29T15:39:21.917Z,97363.97
2023-03-29T15:41:54.606Z,97373.31
2023-03-29T15:44:29.937Z,97382.22
2023-03-29T15:47:01.586Z,97375.00
2023-03-29T15:49:32.575Z,97375.69
2023-03-29T15:52:05.994Z,97392.84
2023-03-29T15:54:37.545Z,97382.81
2023-03-29T15:57:10.461Z,97376.84
2023-03-29T15:59:41.586Z,97363.22
2023-03-29T16:02:17.068Z,97388.94
2023-03-29T16:04:47.648Z,97396.47
2023-03-29T16:07:23.029Z,97394.81
2023-03-29T16:09:53.750Z,97399.44
2023-03-29T16:12:24.534Z,97405.00
2023-03-29T16:14:55.427Z,97400.97
2023-03-29T16:17:26.177Z,97402.91
2023-03-29T16:19:57.430Z,97408.19
2023-03-29T16:22:30.935Z,97415.44
2023-03-29T16:25:01.768Z,97412.13
2023-03-29T16:27:33.818Z,97398.47
2023-03-29T16:30:04.625Z,97417.66
2023-03-29T16:32:35.777Z,97407.63
2023-03-29T16:35:06.876Z,97418.78
2023-03-29T16:37:40.416Z,97410.72
2023-03-29T16:40:13.070Z,97413.50
2023-03-29T16:42:44.830Z,97425.72
2023-03-29T16:45:17.310Z,97425.19
2023-03-29T16:47:48.736Z,97414.34
2023-03-29T16:50:22.161Z,97429.22
2023-03-29T16:52:56.100Z,97434.63
2023-03-29T16:55:27.161Z,97435.75
2023-03-29T16:57:58.232Z,97439.63
2023-03-29T17:00:29.579Z,97443.25
2023-03-29T17:03:02.188Z,97436.56
2023-03-29T17:05:38.226Z,97440.47
2023-03-29T17:08:12.527Z,97445.75
2023-03-29T17:10:44.141Z,97447.97
2023-03-29T17:13:15.678Z,97455.22
2023-03-29T17:15:46.937Z,97434.03
2023-03-29T17:18:17.738Z,97462.00
2023-03-29T17:20:48.548Z,97467.41
2023-03-29T17:23:22.355Z,97467.25
2023-03-29T17:25:53.512Z,97449.88
2023-03-29T17:28:24.532Z,97473.94
2023-03-29T17:30:55.670Z,97449.41
2023-03-29T17:33:26.562Z,97474.16
2023-03-29T17:35:57.956Z,97478.75
2023-03-29T17:38:34.490Z,97481.06
2023-03-29T17:41:07.351Z,97486.47
2023-03-29T17:43:38.130Z,97471.81
2023-03-29T17:46:09.934Z,97497.28
2023-03-29T17:48:40.634Z,97494.88
2023-03-29T17:51:11.691Z,97494.00
2023-03-29T17:53:45.062Z,97501.34
2023-03-29T17:56:16.414Z,97505.31
2023-03-29T17:58:49.330Z,97506.69
2023-03-29T18:01:22.467Z,97513.31
2023-03-29T18:03:53.208Z,97510.38
2023-03-29T18:06:24.322Z,97516.97
2023-03-29T18:08:57.694Z,97518.06
2023-03-29T18:11:28.750Z,97523.75
2023-03-29T18:14:02.400Z,97526.88
2023-03-29T18:16:33.280Z,97522.94
2023-03-29T18:19:04.124Z,97529.91
2023-03-29T18:21:34.912Z,97525.25
2023-03-29T18:24:08.475Z,97535.66
2023-03-29T18:26:39.298Z,97536.75
2023-03-29T18:29:10.099Z,97543.25
2023-03-29T18:31:41.073Z,97541.81
2023-03-29T18:34:11.924Z,97545.44
2023-03-29T18:36:43.249Z,97544.13
2023-03-29T18:39:16.684Z,97542.34
2023-03-29T18:41:47.342Z,97549.66
2023-03-29T18:44:19.152Z,97556.03
2023-03-29T18:46:50.172Z,97546.69
2023-03-29T18:49:21.687Z,97538.69
2023-03-29T18:51:52.778Z,97552.44
2023-03-29T18:54:26.057Z,97545.72
2023-03-29T18:56:59.119Z,97552.94
2023-03-29T18:59:30.222Z,97556.78
2023-03-29T19:02:01.210Z,97535.88
2023-03-29T19:04:32.172Z,97550.19
2023-03-29T19:07:03.945Z,97547.09
2023-03-29T19:09:37.417Z,97540.41
2023-03-29T19:12:08.445Z,97541.59
2023-03-29T19:14:39.119Z,97532.66
2023-03-29T19:17:09.778Z,97543.06
2023-03-29T19:19:40.922Z,97541.50
2023-03-29T19:22:11.769Z,97542.72
2023-03-29T19:24:45.194Z,97523.56
2023-03-29T19:27:16.459Z,97543.44
2023-03-29T19:29:48.419Z,97528.34
2023-03-29T19:32:19.390Z,97541.28
2023-03-29T19:34:49.999Z,97546.06
2023-03-29T19:37:21.164Z,97548.22
2023-03-29T19:39:55.916Z,97541.47
2023-03-29T19:42:26.978Z,97558.22
2023-03-29T19:44:57.705Z,97551.44
2023-03-29T19:47:28.643Z,97548.19
2023-03-29T19:50:01.021Z,97560.03
2023-03-29T19:52:33.205Z,97560.56
2023-03-29T19:55:07.817Z,97560.84
2023-03-29T19:57:39.216Z,97571.22
2023-03-29T20:00:11.969Z,97572.94
2023-03-29T20:02:45.732Z,97580.50
2023-03-29T20:05:16.870Z,97578.00
2023-03-29T20:07:47.739Z,97580.84
2023-03-29T20:10:21.393Z,97579.63
2023-03-29T20:12:52.045Z,97582.22
2023-03-29T20:15:25.921Z,97566.66
2023-03-29T20:17:59.273Z,97575.66
2023-03-29T20:20:30.823Z,97574.31
2023-03-29T20:23:05.239Z,97571.69
2023-03-29T20:25:41.297Z,97577.97
2023-03-29T20:28:13.366Z,97567.56
2023-03-29T20:30:44.799Z,97580.50
2023-03-29T20:33:15.984Z,97566.16
2023-03-29T20:35:48.074Z,97567.25
2023-03-29T20:38:19.346Z,97564.03
2023-03-29T20:40:52.844Z,97580.50
2023-03-29T20:43:24.652Z,97561.25
2023-03-29T20:45:55.850Z,97566.22
2023-03-29T20:48:26.604Z,97573.56
2023-03-29T20:50:57.974Z,97564.38
2023-03-29T20:53:34.987Z,97565.88
2023-03-29T20:56:09.132Z,97566.97
2023-03-29T20:58:42.274Z,97560.88
2023-03-29T21:01:15.147Z,97563.84
2023-03-29T21:03:46.014Z,97565.47
2023-03-29T21:06:19.612Z,97578.25
2023-03-29T21:08:51.037Z,97570.69
2023-03-29T21:11:24.803Z,97565.53
2023-03-29T21:13:56.036Z,97566.75
2023-03-29T21:16:29.445Z,97568.44
2023-03-29T21:19:00.516Z,97571.59
2023-03-29T21:21:33.910Z,97573.59
2023-03-29T21:24:05.290Z,97573.84
2023-03-29T21:26:38.857Z,97572.22
2023-03-29T21:29:09.761Z,97574.78
2023-03-29T21:31:41.212Z,97557.44
2023-03-29T21:34:12.117Z,97571.78
2023-03-29T21:36:43.032Z,97563.00
2023-03-29T21:39:14.349Z,97564.56
2023-03-29T21:41:47.778Z,97574.09
2023-03-29T21:44:18.770Z,97569.88
2023-03-29T21:46:49.554Z,97576.13
2023-03-29T21:49:20.814Z,97574.72
2023-03-29T21:51:51.845Z,97572.66
2023-03-29T21:54:22.687Z,97563.38
2023-03-29T21:56:56.045Z,97566.34
2023-03-29T21:59:28.357Z,97562.13
2023-03-29T22:01:59.272Z,97573.50
2023-03-29T22:04:37.049Z,97575.81
2023-03-29T22:07:10.960Z,97579.81
2023-03-29T22:09:42.781Z,97579.81
2023-03-29T22:12:16.279Z,97577.19
2023-03-29T22:14:47.336Z,97575.19
2023-03-29T22:17:18.245Z,97581.53
2023-03-29T22:19:49.264Z,97577.09
2023-03-29T22:22:20.028Z,97579.00
2023-03-29T22:24:51.049Z,97571.75
2023-03-29T22:27:25.906Z,97581.75
2023-03-29T22:29:56.842Z,97575.50
2023-03-29T22:32:27.821Z,97583.53
2023-03-29T22:34:58.774Z,97583.13
2023-03-29T22:37:29.590Z,97589.59
2023-03-29T22:40:00.573Z,97585.41
2023-03-29T22:42:34.107Z,97582.03
2023-03-29T22:45:05.049Z,97584.66
2023-03-29T22:47:35.913Z,97593.34
2023-03-29T22:50:07.661Z,97587.06
2023-03-29T22:52:38.533Z,97589.13
2023-03-29T22:55:10.408Z,97591.19
2023-03-29T22:57:44.221Z,97595.84
2023-03-29T23:00:16.736Z,97582.22
2023-03-29T23:02:47.685Z,97592.31
2023-03-29T23:05:18.700Z,97590.78
2023-03-29T23:07:49.484Z,97584.03
2023-03-29T23:10:20.826Z,97590.22
2023-03-29T23:12:54.660Z,97580.50
2023-03-29T23:15:26.278Z,97582.56
2023-03-29T23:17:58.327Z,97575.22
2023-03-29T23:20:29.435Z,97590.75
2023-03-29T23:23:00.132Z,97564.38
2023-03-29T23:25:31.876Z,97591.59
2023-03-29T23:28:05.238Z,97581.28
2023-03-29T23:30:37.502Z,97586.19
2023-03-29T23:33:10.699Z,97583.50
2023-03-29T23:35:41.697Z,97576.94
2023-03-29T23:38:12.364Z,97573.63
2023-03-29T23:40:43.282Z,97577.63
2023-03-29T23:43:17.431Z,97581.63
2023-03-29T23:45:48.291Z,97569.81
2023-03-29T23:48:20.554Z,97567.88
2023-03-29T23:50:51.622Z,97566.81
2023-03-29T23:53:22.937Z,97564.66
2023-03-29T23:55:54.086Z,97568.91
2023-03-29T23:58:27.569Z,97557.97
